Terminal Aerodrome Forecast
Issued by NWS

Home | Current Version | Previous Version | Text Only | Print | Product List | Glossary On
Versions: 1 2 3 4 5 6 7 8 9 10 11 12 13
000
FTPA31 PHFO 292330
TAFHJH
TAF
PHJH 292330Z 3000/3024 VRB04KT P6SM FEW030 SCT045
     FM300800 12004KT P6SM FEW025 SCT040
     FM302000 04010KT P6SM FEW030 SCT045
      AMD NOT SKED AFT 300400=

USA.gov is the U.S. government's official web portal to all federal, state and local government web resources and services.